createdAt,value
2023-07-22T00:04:45.996Z,2.33
2023-07-22T00:09:53.343Z,2.10
2023-07-22T00:14:56.927Z,2.20
2023-07-22T00:20:01.413Z,2.13
2023-07-22T00:25:07.387Z,1.93
2023-07-22T00:30:12.244Z,2.20
2023-07-22T00:35:15.702Z,2.70
2023-07-22T00:40:20.956Z,2.07
2023-07-22T00:45:24.794Z,2.40
2023-07-22T00:50:28.830Z,2.20
2023-07-22T00:55:35.605Z,1.93
2023-07-22T01:00:39.158Z,2.20
2023-07-22T01:05:43.887Z,2.10
2023-07-22T01:10:49.691Z,2.43
2023-07-22T01:15:53.311Z,2.20
2023-07-22T01:20:57.053Z,2.17
2023-07-22T01:26:02.446Z,2.23
2023-07-22T01:31:06.643Z,2.53
2023-07-22T01:36:10.311Z,2.30
2023-07-22T01:41:15.266Z,2.60
2023-07-22T01:46:19.038Z,2.30
2023-07-22T01:51:22.959Z,2.07
2023-07-22T01:56:28.563Z,2.30
2023-07-22T02:01:32.471Z,2.27
2023-07-22T02:06:36.888Z,2.40
2023-07-22T02:11:42.046Z,2.43
2023-07-22T02:16:45.700Z,2.37
2023-07-22T02:21:49.474Z,2.30
2023-07-22T02:26:54.540Z,2.23
2023-07-22T02:31:58.890Z,2.40
2023-07-22T02:37:02.916Z,2.37
2023-07-22T02:42:08.709Z,2.40
2023-07-22T02:47:12.142Z,2.30
2023-07-22T02:52:16.022Z,2.50
2023-07-22T02:57:22.617Z,2.30
2023-07-22T03:02:26.901Z,2.00
2023-07-22T03:07:30.493Z,2.20
2023-07-22T03:12:35.901Z,2.33
2023-07-22T03:17:43.198Z,2.10
2023-07-22T03:22:46.923Z,2.40
2023-07-22T03:27:52.054Z,2.30
2023-07-22T03:32:56.594Z,2.40
2023-07-22T03:38:00.562Z,2.20
2023-07-22T03:43:05.917Z,2.13
2023-07-22T03:48:10.449Z,2.53
2023-07-22T03:53:14.366Z,2.40
2023-07-22T03:58:19.327Z,2.43
2023-07-22T04:03:22.981Z,2.30
2023-07-22T04:08:26.583Z,2.27
2023-07-22T04:13:32.458Z,2.20
2023-07-22T04:18:36.210Z,2.63
2023-07-22T04:23:39.734Z,2.33
2023-07-22T04:28:44.495Z,2.10
2023-07-22T04:33:48.065Z,2.27
2023-07-22T04:38:51.654Z,2.23
2023-07-22T04:43:57.586Z,1.93
2023-07-22T04:49:03.805Z,2.03
2023-07-22T04:54:07.353Z,2.47
2023-07-22T04:59:13.434Z,2.00
2023-07-22T05:04:16.871Z,2.40
2023-07-22T05:09:20.585Z,2.20
2023-07-22T05:14:26.096Z,2.00
2023-07-22T05:19:29.770Z,2.53
2023-07-22T05:24:33.880Z,2.40
2023-07-22T05:29:39.257Z,2.50
2023-07-22T05:34:43.000Z,2.50
2023-07-22T05:39:46.899Z,2.77
2023-07-22T05:44:52.460Z,2.20
2023-07-22T05:49:56.135Z,2.20
2023-07-22T05:55:03.627Z,2.20
2023-07-22T06:00:11.172Z,2.30
2023-07-22T06:05:18.106Z,2.20
2023-07-22T06:10:21.736Z,2.13
2023-07-22T06:15:27.483Z,2.07
2023-07-22T06:20:31.305Z,1.97
2023-07-22T06:25:35.045Z,2.20
2023-07-22T06:30:47.528Z,1.80
2023-07-22T06:35:52.254Z,2.30
2023-07-22T06:40:58.590Z,2.40
2023-07-22T06:46:03.471Z,2.23
2023-07-22T06:51:07.101Z,2.33
2023-07-22T06:56:12.737Z,2.20
2023-07-22T07:01:17.846Z,1.98
2023-07-22T07:06:21.858Z,2.13
2023-07-22T07:11:25.878Z,2.60
2023-07-22T07:16:33.305Z,2.00
2023-07-22T07:21:37.090Z,2.30
2023-07-22T07:26:40.833Z,2.13
2023-07-22T07:31:46.054Z,2.20
2023-07-22T07:36:50.067Z,2.35
2023-07-22T07:41:56.355Z,2.17
2023-07-22T07:47:05.267Z,2.40
2023-07-22T07:52:08.997Z,2.08
2023-07-22T07:57:13.344Z,1.60
2023-07-22T08:02:18.763Z,2.00
2023-07-22T08:07:22.317Z,1.73
2023-07-22T08:12:25.910Z,2.33
2023-07-22T08:17:31.696Z,1.85
2023-07-22T08:22:35.299Z,2.10
2023-07-22T08:27:40.472Z,1.95
2023-07-22T08:32:45.812Z,1.92
2023-07-22T08:37:49.965Z,2.13
2023-07-22T08:42:54.998Z,1.80
2023-07-22T08:48:01.252Z,1.92
2023-07-22T08:53:05.236Z,1.90
2023-07-22T08:58:10.436Z,2.13
2023-07-22T09:03:18.090Z,1.98
2023-07-22T09:08:22.295Z,2.10
2023-07-22T09:13:27.478Z,1.98
2023-07-22T09:18:34.781Z,1.80
2023-07-22T09:23:39.012Z,2.03
2023-07-22T09:28:55.918Z,1.80
2023-07-22T09:34:11.662Z,1.65
2023-07-22T09:39:17.112Z,1.92
2023-07-22T09:44:20.762Z,1.92
2023-07-22T09:49:28.610Z,1.80
2023-07-22T09:54:32.554Z,1.80
2023-07-22T09:59:37.190Z,1.90
2023-07-22T10:04:43.080Z,2.10
2023-07-22T10:09:47.926Z,1.90
2023-07-22T10:14:52.090Z,1.77
2023-07-22T10:19:59.095Z,1.92
2023-07-22T10:25:06.846Z,2.08
2023-07-22T10:30:11.693Z,1.77
2023-07-22T10:35:22.647Z,2.00
2023-07-22T10:40:29.922Z,2.10
2023-07-22T10:45:34.336Z,2.00
2023-07-22T10:50:54.841Z,1.90
2023-07-22T10:56:15.047Z,1.80
2023-07-22T11:01:27.617Z,2.00
2023-07-22T11:06:32.864Z,2.05
2023-07-22T11:11:38.005Z,1.98
2023-07-22T11:16:41.413Z,2.08
2023-07-22T11:21:46.797Z,2.20
2023-07-22T11:26:50.814Z,2.10
2023-07-22T11:31:54.274Z,2.33
2023-07-22T11:37:00.158Z,1.85
2023-07-22T11:42:04.137Z,2.10
2023-07-22T11:47:09.113Z,1.90
2023-07-22T11:52:18.672Z,2.00
2023-07-22T11:57:22.939Z,2.22
2023-07-22T12:02:27.116Z,1.95
2023-07-22T12:07:32.932Z,2.00
2023-07-22T12:12:36.734Z,2.13
2023-07-22T12:17:52.701Z,1.77
2023-07-22T12:22:57.700Z,2.22
2023-07-22T12:28:01.354Z,1.92
2023-07-22T12:33:05.390Z,1.90
2023-07-22T12:38:10.255Z,2.13
2023-07-22T12:43:13.687Z,2.05
2023-07-22T12:48:18.150Z,1.85
2023-07-22T12:53:25.637Z,1.75
2023-07-22T12:58:29.453Z,1.95
2023-07-22T13:03:33.002Z,2.20
2023-07-22T13:08:38.496Z,2.20
2023-07-22T13:13:42.020Z,2.13
2023-07-22T13:18:45.451Z,2.30
2023-07-22T13:23:51.246Z,1.85
2023-07-22T13:28:54.776Z,2.08
2023-07-22T13:33:58.257Z,1.80
2023-07-22T13:39:03.082Z,1.95
2023-07-22T13:44:06.756Z,1.90
2023-07-22T13:49:12.997Z,1.88
2023-07-22T13:54:18.730Z,2.30
2023-07-22T13:59:22.830Z,2.25
2023-07-22T14:04:26.672Z,2.00
2023-07-22T14:09:31.380Z,1.90
2023-07-22T14:14:34.886Z,1.98
2023-07-22T14:19:38.285Z,1.92
2023-07-22T14:24:43.119Z,1.98
2023-07-22T14:29:46.538Z,2.15
2023-07-22T14:34:50.143Z,2.17
2023-07-22T14:39:55.725Z,2.33
2023-07-22T14:44:59.159Z,2.25
2023-07-22T14:50:02.572Z,2.15
2023-07-22T14:55:08.508Z,2.22
2023-07-22T15:00:13.472Z,2.30
2023-07-22T15:05:16.857Z,2.20
2023-07-22T15:10:22.749Z,2.53
2023-07-22T15:15:26.199Z,2.05
2023-07-22T15:20:29.617Z,2.15
2023-07-22T15:25:34.392Z,1.95
2023-07-22T15:30:37.867Z,1.90
2023-07-22T15:35:41.248Z,2.30
2023-07-22T15:40:46.353Z,2.20
2023-07-22T15:45:50.011Z,2.20
2023-07-22T15:50:57.531Z,1.80
2023-07-22T15:56:04.170Z,2.33
2023-07-22T16:01:12.063Z,2.45
2023-07-22T16:06:30.677Z,2.50
2023-07-22T16:11:38.266Z,2.47
2023-07-22T16:16:42.013Z,2.47
2023-07-22T16:21:45.417Z,2.65
2023-07-22T16:26:50.200Z,2.60
2023-07-22T16:31:54.095Z,2.67
2023-07-22T16:36:57.726Z,2.28
2023-07-22T16:42:02.528Z,2.60
2023-07-22T16:47:13.415Z,2.58
2023-07-22T16:52:20.091Z,2.53
2023-07-22T16:57:25.170Z,2.80
2023-07-22T17:02:28.931Z,3.00
2023-07-22T17:07:32.695Z,2.80
2023-07-22T17:12:38.376Z,2.88
2023-07-22T17:17:45.562Z,2.65
2023-07-22T17:22:49.155Z,2.58
2023-07-22T17:27:54.217Z,2.67
2023-07-22T17:32:57.814Z,2.63
2023-07-22T17:38:01.389Z,2.50
2023-07-22T17:43:06.552Z,2.60
2023-07-22T17:48:10.245Z,2.30
2023-07-22T17:53:13.653Z,2.60
2023-07-22T17:58:20.873Z,2.70
2023-07-22T18:03:24.387Z,3.03
2023-07-22T18:08:28.805Z,2.40
2023-07-22T18:13:34.146Z,2.60
2023-07-22T18:18:37.540Z,2.65
2023-07-22T18:23:42.996Z,2.88
2023-07-22T18:28:48.208Z,2.30
2023-07-22T18:33:51.673Z,2.78
2023-07-22T18:38:55.296Z,2.70
2023-07-22T18:44:00.145Z,2.73
2023-07-22T18:49:03.859Z,2.60
2023-07-22T18:54:07.288Z,2.87
2023-07-22T18:59:12.272Z,2.90
2023-07-22T19:04:20.287Z,2.30
2023-07-22T19:09:23.980Z,2.70
2023-07-22T19:14:28.833Z,2.73
2023-07-22T19:19:32.342Z,2.67
2023-07-22T19:24:35.958Z,3.07
2023-07-22T19:29:41.233Z,2.50
2023-07-22T19:34:44.926Z,3.27
2023-07-22T19:39:49.969Z,2.60
2023-07-22T19:44:54.780Z,2.80
2023-07-22T19:49:58.229Z,2.80
2023-07-22T19:55:01.587Z,4.60
2023-07-22T20:00:06.867Z,2.57
2023-07-22T20:05:15.640Z,3.13
2023-07-22T20:10:19.171Z,2.80
2023-07-22T20:15:24.002Z,2.40
2023-07-22T20:20:27.391Z,2.67
2023-07-22T20:25:30.812Z,2.63
2023-07-22T20:30:35.741Z,2.70
2023-07-22T20:35:38.988Z,2.70
2023-07-22T20:40:42.366Z,2.63
2023-07-22T20:45:47.143Z,2.40
2023-07-22T20:50:50.553Z,2.53
2023-07-22T20:55:53.977Z,2.63
2023-07-22T21:01:02.102Z,2.90
2023-07-22T21:06:06.329Z,2.47
2023-07-22T21:11:12.135Z,2.80
2023-07-22T21:16:17.247Z,2.70
2023-07-22T21:21:20.999Z,2.40
2023-07-22T21:26:26.710Z,2.57
2023-07-22T21:31:37.097Z,2.67
2023-07-22T21:36:51.723Z,2.60
2023-07-22T21:41:56.416Z,2.73
2023-07-22T21:47:01.664Z,2.40
2023-07-22T21:52:05.635Z,2.43
2023-07-22T21:57:10.172Z,2.83
2023-07-22T22:02:16.821Z,2.53
2023-07-22T22:07:20.654Z,2.80
2023-07-22T22:12:25.075Z,2.77
2023-07-22T22:17:30.548Z,2.53
2023-07-22T22:22:34.687Z,2.90
2023-07-22T22:27:38.121Z,2.50
2023-07-22T22:32:43.156Z,2.43
2023-07-22T22:37:46.640Z,2.67
2023-07-22T22:42:50.668Z,2.73
2023-07-22T22:47:56.178Z,2.63
2023-07-22T22:53:00.060Z,2.60
2023-07-22T22:58:03.711Z,2.77
2023-07-22T23:03:08.449Z,2.47
2023-07-22T23:08:11.939Z,2.90
2023-07-22T23:13:15.652Z,2.50
2023-07-22T23:18:21.689Z,2.83
2023-07-22T23:23:25.015Z,2.80
2023-07-22T23:28:28.464Z,2.70
2023-07-22T23:33:34.091Z,3.00
2023-07-22T23:38:37.881Z,2.73
2023-07-22T23:43:43.714Z,2.60
2023-07-22T23:48:48.520Z,2.80
2023-07-22T23:53:52.998Z,2.30
2023-07-22T23:58:56.464Z,2.70
